Página principal
METAR-TAF:

METAR-TAF

Aeroportos :

Cambridge, Inglaterra

latitude: 52-12N, longitude: 000-11E, altura: 15 m

Observação actual do tempo

O boletim foi feito há 17 minutos, às 08:20 UTC
Vento 14 kt de oes-sudoeste, variando entre su-sudoeste e oeste
Temperatura 11°C
Humidade 87%
Pressão 1006 hPa
Visibilidade 10 km ou mais
Poucas nuvensa uma altura de 1200 ft
Nuvens fragmentadasa uma altura de 2000 ft

METAR: EGSC 220820Z 24014KT 200V260 9999 FEW012 BKN020 11/09 Q1006

Hora: 08:37 (08:37 UTC)

Previsão

O boletim foi feito há 15 horas e 28 minutos, às 17:09 UTC
Previsão válida de 21 às 18 UTC a 21 às 21 UTC
Vento 12 kt de oes-sudoeste
Visibilidade 10 km ou mais
Nuvens dispersasa uma altura de 1600 ft
Probabilidade 30% :
Temporariamente
de 21 às 18 UTC a 21 às 21 UTC
Vento 16 kt de oeste com rajadas de 26 kt
Nuvens fragmentadasa uma altura de 1400 ft

TAF: EGSC 211709Z 2118/2121 24012KT 9999 SCT016 PROB30 TEMPO 2118/2121 26016G26KT BKN014

Observações e previsões do tempo de mais de 4000 aeroportos (mensagens METAR e TAF).

As estações disponíveis são os pontos amarelos e vermelhos sobre o mapa.

Mova o rato sobre o mapa para ver o nome da estação.

Depois clique no ponto para visualizar as observações e previsões meteorológicas.

Para alterar o mapa : clique nos botões verdes com uma cruz preta para aumentar o zoom; no botão verde com uma pitada de zoom; ou nas setas verdes para mapas adjacentes.


METAR-TAF: